sensor_id;sensor_type;location;lat;lon;timestamp;P1;durP1;ratioP1;P2;durP2;ratioP2
50757;SDS011;36732;47.980;11.652;2024-03-23T00:53:37;2.25;;;1.27;;
50757;SDS011;36732;47.980;11.652;2024-03-23T00:56:03;3.63;;;1.40;;
50757;SDS011;36732;47.980;11.652;2024-03-23T00:58:29;2.33;;;1.30;;
50757;SDS011;36732;47.980;11.652;2024-03-23T01:00:55;1.98;;;1.50;;
50757;SDS011;36732;47.980;11.652;2024-03-23T01:03:21;2.35;;;1.40;;
50757;SDS011;36732;47.980;11.652;2024-03-23T01:05:47;1.35;;;1.08;;
50757;SDS011;36732;47.980;11.652;2024-03-23T01:08:13;1.67;;;1.40;;
50757;SDS011;36732;47.980;11.652;2024-03-23T01:10:39;2.88;;;1.27;;
50757;SDS011;36732;47.980;11.652;2024-03-23T01:13:05;1.80;;;1.20;;
50757;SDS011;36732;47.980;11.652;2024-03-23T01:15:31;1.48;;;1.25;;
50757;SDS011;36732;47.980;11.652;2024-03-23T01:17:57;5.05;;;1.42;;
50757;SDS011;36732;47.980;11.652;2024-03-23T01:20:22;1.48;;;1.02;;
50757;SDS011;36732;47.980;11.652;2024-03-23T01:22:48;1.65;;;1.20;;
50757;SDS011;36732;47.980;11.652;2024-03-23T01:25:14;2.15;;;1.40;;
50757;SDS011;36732;47.980;11.652;2024-03-23T01:27:39;1.55;;;1.30;;
50757;SDS011;36732;47.980;11.652;2024-03-23T01:30:05;1.58;;;1.30;;
50757;SDS011;36732;47.980;11.652;2024-03-23T01:32:32;3.65;;;1.73;;
50757;SDS011;36732;47.980;11.652;2024-03-23T01:34:58;2.05;;;1.55;;
50757;SDS011;36732;47.980;11.652;2024-03-23T01:37:23;2.45;;;1.60;;
50757;SDS011;36732;47.980;11.652;2024-03-23T01:39:49;1.73;;;1.30;;
50757;SDS011;36732;47.980;11.652;2024-03-23T01:42:15;1.60;;;1.50;;
50757;SDS011;36732;47.980;11.652;2024-03-23T01:44:41;3.00;;;1.38;;
50757;SDS011;36732;47.980;11.652;2024-03-23T01:47:07;2.50;;;1.40;;
50757;SDS011;36732;47.980;11.652;2024-03-23T01:49:33;1.50;;;1.20;;
50757;SDS011;36732;47.980;11.652;2024-03-23T01:51:59;1.60;;;1.30;;
50757;SDS011;36732;47.980;11.652;2024-03-23T01:54:25;1.60;;;1.20;;
50757;SDS011;36732;47.980;11.652;2024-03-23T01:56:51;2.55;;;1.33;;
50757;SDS011;36732;47.980;11.652;2024-03-23T01:59:17;1.52;;;1.35;;
50757;SDS011;36732;47.980;11.652;2024-03-23T02:01:42;1.20;;;1.10;;
50757;SDS011;36732;47.980;11.652;2024-03-23T02:04:08;2.65;;;1.45;;
50757;SDS011;36732;47.980;11.652;2024-03-23T02:06:34;1.85;;;1.20;;
50757;SDS011;36732;47.980;11.652;2024-03-23T02:09:00;1.45;;;1.30;;
50757;SDS011;36732;47.980;11.652;2024-03-23T02:11:26;1.55;;;1.35;;
50757;SDS011;36732;47.980;11.652;2024-03-23T02:13:52;1.77;;;1.42;;
50757;SDS011;36732;47.980;11.652;2024-03-23T02:16:18;2.47;;;1.38;;
50757;SDS011;36732;47.980;11.652;2024-03-23T02:18:43;2.08;;;1.15;;
50757;SDS011;36732;47.980;11.652;2024-03-23T02:21:09;1.58;;;1.23;;
50757;SDS011;36732;47.980;11.652;2024-03-23T02:23:35;3.47;;;1.58;;
50757;SDS011;36732;47.980;11.652;2024-03-23T02:26:00;1.25;;;1.00;;
50757;SDS011;36732;47.980;11.652;2024-03-23T02:28:26;1.40;;;1.13;;
50757;SDS011;36732;47.980;11.652;2024-03-23T02:30:52;1.60;;;1.30;;
50757;SDS011;36732;47.980;11.652;2024-03-23T02:33:17;2.03;;;1.42;;
50757;SDS011;36732;47.980;11.652;2024-03-23T02:35:43;1.30;;;1.20;;
50757;SDS011;36732;47.980;11.652;2024-03-23T02:38:11;2.00;;;1.83;;
50757;SDS011;36732;47.980;11.652;2024-03-23T02:40:36;1.65;;;1.38;;
50757;SDS011;36732;47.980;11.652;2024-03-23T02:43:02;2.85;;;1.48;;
50757;SDS011;36732;47.980;11.652;2024-03-23T02:45:29;1.55;;;1.20;;
50757;SDS011;36732;47.980;11.652;2024-03-23T02:47:54;2.65;;;1.30;;
50757;SDS011;36732;47.980;11.652;2024-03-23T02:50:20;2.30;;;1.20;;
50757;SDS011;36732;47.980;11.652;2024-03-23T02:52:46;1.83;;;1.23;;
50757;SDS011;36732;47.980;11.652;2024-03-23T02:55:13;2.53;;;1.10;;
50757;SDS011;36732;47.980;11.652;2024-03-23T02:57:39;2.13;;;1.00;;
50757;SDS011;36732;47.980;11.652;2024-03-23T03:00:05;3.65;;;1.17;;
50757;SDS011;36732;47.980;11.652;2024-03-23T03:02:32;2.05;;;1.20;;
50757;SDS011;36732;47.980;11.652;2024-03-23T03:04:58;3.47;;;1.15;;
50757;SDS011;36732;47.980;11.652;2024-03-23T03:07:24;1.60;;;1.05;;
50757;SDS011;36732;47.980;11.652;2024-03-23T03:09:49;1.20;;;1.10;;
50757;SDS011;36732;47.980;11.652;2024-03-23T03:12:15;1.08;;;0.98;;
50757;SDS011;36732;47.980;11.652;2024-03-23T03:14:41;1.45;;;1.10;;
50757;SDS011;36732;47.980;11.652;2024-03-23T03:17:07;1.42;;;1.10;;
50757;SDS011;36732;47.980;11.652;2024-03-23T03:19:33;1.90;;;1.30;;
50757;SDS011;36732;47.980;11.652;2024-03-23T03:21:58;1.13;;;1.02;;
50757;SDS011;36732;47.980;11.652;2024-03-23T03:24:24;1.52;;;1.10;;
50757;SDS011;36732;47.980;11.652;2024-03-23T03:26:50;0.80;;;0.80;;
50757;SDS011;36732;47.980;11.652;2024-03-23T03:29:16;3.47;;;1.25;;
50757;SDS011;36732;47.980;11.652;2024-03-23T03:31:42;1.23;;;1.10;;
50757;SDS011;36732;47.980;11.652;2024-03-23T03:34:08;3.05;;;1.25;;
50757;SDS011;36732;47.980;11.652;2024-03-23T03:36:34;1.85;;;1.33;;
50757;SDS011;36732;47.980;11.652;2024-03-23T03:39:00;1.10;;;1.00;;
50757;SDS011;36732;47.980;11.652;2024-03-23T03:41:27;1.55;;;1.00;;
50757;SDS011;36732;47.980;11.652;2024-03-23T03:43:53;1.10;;;0.90;;
50757;SDS011;36732;47.980;11.652;2024-03-23T03:46:20;1.88;;;1.20;;
50757;SDS011;36732;47.980;11.652;2024-03-23T03:48:45;1.55;;;1.10;;
50757;SDS011;36732;47.980;11.652;2024-03-23T03:51:13;0.95;;;0.85;;
50757;SDS011;36732;47.980;11.652;2024-03-23T03:53:39;1.30;;;1.10;;
50757;SDS011;36732;47.980;11.652;2024-03-23T03:56:05;0.93;;;0.90;;
50757;SDS011;36732;47.980;11.652;2024-03-23T03:58:30;1.00;;;0.90;;
50757;SDS011;36732;47.980;11.652;2024-03-23T04:00:56;1.10;;;1.00;;
50757;SDS011;36732;47.980;11.652;2024-03-23T04:03:22;1.20;;;0.93;;
50757;SDS011;36732;47.980;11.652;2024-03-23T04:05:54;1.45;;;0.98;;
50757;SDS011;36732;47.980;11.652;2024-03-23T04:08:20;1.30;;;0.95;;
50757;SDS011;36732;47.980;11.652;2024-03-23T04:10:46;3.25;;;1.48;;
50757;SDS011;36732;47.980;11.652;2024-03-23T04:13:12;1.48;;;1.23;;
50757;SDS011;36732;47.980;11.652;2024-03-23T04:15:38;0.90;;;0.85;;
50757;SDS011;36732;47.980;11.652;2024-03-23T04:18:04;2.05;;;1.25;;
50757;SDS011;36732;47.980;11.652;2024-03-23T04:20:30;1.45;;;0.93;;
50757;SDS011;36732;47.980;11.652;2024-03-23T04:22:57;1.70;;;1.17;;
50757;SDS011;36732;47.980;11.652;2024-03-23T04:25:26;1.58;;;1.20;;
50757;SDS011;36732;47.980;11.652;2024-03-23T04:27:52;1.77;;;0.88;;
50757;SDS011;36732;47.980;11.652;2024-03-23T04:30:17;1.27;;;0.93;;
50757;SDS011;36732;47.980;11.652;2024-03-23T04:32:44;1.50;;;1.00;;
50757;SDS011;36732;47.980;11.652;2024-03-23T04:35:10;0.90;;;0.80;;
50757;SDS011;36732;47.980;11.652;2024-03-23T04:37:36;1.10;;;1.00;;
50757;SDS011;36732;47.980;11.652;2024-03-23T04:40:08;1.67;;;1.10;;
50757;SDS011;36732;47.980;11.652;2024-03-23T04:42:34;1.58;;;0.90;;
50757;SDS011;36732;47.980;11.652;2024-03-23T04:45:00;1.30;;;1.13;;
50757;SDS011;36732;47.980;11.652;2024-03-23T04:47:26;1.70;;;1.30;;
50757;SDS011;36732;47.980;11.652;2024-03-23T04:49:51;2.05;;;1.02;;
50757;SDS011;36732;47.980;11.652;2024-03-23T04:52:18;1.45;;;1.15;;
50757;SDS011;36732;47.980;11.652;2024-03-23T04:54:44;2.05;;;1.13;;
50757;SDS011;36732;47.980;11.652;2024-03-23T04:57:10;2.45;;;0.90;;
50757;SDS011;36732;47.980;11.652;2024-03-23T04:59:36;1.80;;;1.10;;
50757;SDS011;36732;47.980;11.652;2024-03-23T05:02:02;1.13;;;1.02;;
50757;SDS011;36732;47.980;11.652;2024-03-23T05:04:27;2.33;;;1.13;;
50757;SDS011;36732;47.980;11.652;2024-03-23T05:06:53;1.13;;;1.02;;
50757;SDS011;36732;47.980;11.652;2024-03-23T05:09:19;1.20;;;0.88;;
50757;SDS011;36732;47.980;11.652;2024-03-23T05:11:45;1.20;;;0.93;;
50757;SDS011;36732;47.980;11.652;2024-03-23T05:14:13;3.42;;;1.55;;
50757;SDS011;36732;47.980;11.652;2024-03-23T05:16:39;1.20;;;1.10;;
50757;SDS011;36732;47.980;11.652;2024-03-23T05:19:05;1.30;;;0.98;;
50757;SDS011;36732;47.980;11.652;2024-03-23T05:21:30;2.10;;;1.30;;
50757;SDS011;36732;47.980;11.652;2024-03-23T05:23:56;2.20;;;0.70;;
50757;SDS011;36732;47.980;11.652;2024-03-23T05:26:22;1.20;;;0.95;;
50757;SDS011;36732;47.980;11.652;2024-03-23T05:28:48;1.77;;;0.98;;
50757;SDS011;36732;47.980;11.652;2024-03-23T05:31:22;0.93;;;0.80;;
50757;SDS011;36732;47.980;11.652;2024-03-23T05:33:52;2.33;;;0.82;;
50757;SDS011;36732;47.980;11.652;2024-03-23T05:36:17;1.55;;;0.88;;
50757;SDS011;36732;47.980;11.652;2024-03-23T05:38:43;4.03;;;1.05;;
50757;SDS011;36732;47.980;11.652;2024-03-23T05:41:09;1.60;;;0.90;;
50757;SDS011;36732;47.980;11.652;2024-03-23T05:43:35;1.77;;;1.00;;
50757;SDS011;36732;47.980;11.652;2024-03-23T05:46:00;1.73;;;0.90;;
50757;SDS011;36732;47.980;11.652;2024-03-23T05:48:27;0.93;;;0.80;;
50757;SDS011;36732;47.980;11.652;2024-03-23T05:50:53;1.55;;;0.98;;
50757;SDS011;36732;47.980;11.652;2024-03-23T05:53:19;1.20;;;1.10;;
50757;SDS011;36732;47.980;11.652;2024-03-23T05:55:45;1.67;;;1.35;;
50757;SDS011;36732;47.980;11.652;2024-03-23T05:58:12;2.88;;;1.83;;
50757;SDS011;36732;47.980;11.652;2024-03-23T06:00:40;2.80;;;1.42;;
50757;SDS011;36732;47.980;11.652;2024-03-23T06:03:07;3.03;;;1.60;;
50757;SDS011;36732;47.980;11.652;2024-03-23T06:05:33;3.20;;;1.52;;
50757;SDS011;36732;47.980;11.652;2024-03-23T06:07:59;2.22;;;1.50;;
50757;SDS011;36732;47.980;11.652;2024-03-23T06:10:24;4.75;;;1.88;;
50757;SDS011;36732;47.980;11.652;2024-03-23T06:12:50;2.72;;;1.90;;
50757;SDS011;36732;47.980;11.652;2024-03-23T06:15:17;3.35;;;1.73;;
50757;SDS011;36732;47.980;11.652;2024-03-23T06:17:44;3.70;;;2.15;;
50757;SDS011;36732;47.980;11.652;2024-03-23T06:20:10;4.47;;;2.10;;
50757;SDS011;36732;47.980;11.652;2024-03-23T06:22:35;2.97;;;1.80;;
50757;SDS011;36732;47.980;11.652;2024-03-23T06:25:01;4.55;;;2.50;;
50757;SDS011;36732;47.980;11.652;2024-03-23T06:27:27;4.15;;;2.88;;
50757;SDS011;36732;47.980;11.652;2024-03-23T06:29:54;5.95;;;3.22;;
50757;SDS011;36732;47.980;11.652;2024-03-23T06:32:20;4.35;;;2.45;;
50757;SDS011;36732;47.980;11.652;2024-03-23T06:34:46;4.95;;;2.42;;
50757;SDS011;36732;47.980;11.652;2024-03-23T06:37:12;3.10;;;2.50;;
50757;SDS011;36732;47.980;11.652;2024-03-23T06:39:37;3.83;;;2.55;;
50757;SDS011;36732;47.980;11.652;2024-03-23T06:42:03;3.85;;;2.30;;
50757;SDS011;36732;47.980;11.652;2024-03-23T06:44:29;4.55;;;2.47;;
50757;SDS011;36732;47.980;11.652;2024-03-23T06:46:56;3.28;;;2.17;;
50757;SDS011;36732;47.980;11.652;2024-03-23T06:49:22;2.83;;;2.35;;
50757;SDS011;36732;47.980;11.652;2024-03-23T06:51:48;2.40;;;2.08;;
50757;SDS011;36732;47.980;11.652;2024-03-23T06:54:14;3.60;;;1.80;;
50757;SDS011;36732;47.980;11.652;2024-03-23T06:56:42;2.00;;;1.52;;
50757;SDS011;36732;47.980;11.652;2024-03-23T06:59:09;1.85;;;1.10;;
50757;SDS011;36732;47.980;11.652;2024-03-23T07:01:35;1.92;;;0.95;;
50757;SDS011;36732;47.980;11.652;2024-03-23T07:04:00;1.23;;;0.90;;
50757;SDS011;36732;47.980;11.652;2024-03-23T07:06:26;1.10;;;1.00;;
50757;SDS011;36732;47.980;11.652;2024-03-23T07:08:52;1.98;;;1.00;;
50757;SDS011;36732;47.980;11.652;2024-03-23T07:11:19;1.10;;;1.00;;
50757;SDS011;36732;47.980;11.652;2024-03-23T07:13:46;1.88;;;1.13;;
50757;SDS011;36732;47.980;11.652;2024-03-23T07:16:14;3.20;;;1.15;;
50757;SDS011;36732;47.980;11.652;2024-03-23T07:18:41;1.85;;;0.73;;
50757;SDS011;36732;47.980;11.652;2024-03-23T07:21:06;1.17;;;0.85;;
50757;SDS011;36732;47.980;11.652;2024-03-23T07:23:32;1.35;;;1.00;;
50757;SDS011;36732;47.980;11.652;2024-03-23T07:28:32;2.05;;;0.80;;
50757;SDS011;36732;47.980;11.652;2024-03-23T07:31:10;0.90;;;0.57;;
50757;SDS011;36732;47.980;11.652;2024-03-23T07:33:37;1.30;;;0.73;;
50757;SDS011;36732;47.980;11.652;2024-03-23T07:36:10;0.45;;;0.43;;
50757;SDS011;36732;47.980;11.652;2024-03-23T07:38:36;1.08;;;0.70;;
50757;SDS011;36732;47.980;11.652;2024-03-23T07:41:05;0.88;;;0.70;;
50757;SDS011;36732;47.980;11.652;2024-03-23T07:43:33;0.70;;;0.65;;
50757;SDS011;36732;47.980;11.652;2024-03-23T07:46:02;1.35;;;1.02;;
50757;SDS011;36732;47.980;11.652;2024-03-23T07:48:29;1.00;;;0.82;;
50757;SDS011;36732;47.980;11.652;2024-03-23T07:50:58;1.55;;;0.80;;
50757;SDS011;36732;47.980;11.652;2024-03-23T07:53:25;1.52;;;0.80;;
50757;SDS011;36732;47.980;11.652;2024-03-23T07:55:56;4.43;;;1.00;;
50757;SDS011;36732;47.980;11.652;2024-03-23T07:58:24;0.60;;;0.60;;
50757;SDS011;36732;47.980;11.652;2024-03-23T08:00:50;1.85;;;0.75;;
50757;SDS011;36732;47.980;11.652;2024-03-23T08:03:16;2.40;;;1.00;;
50757;SDS011;36732;47.980;11.652;2024-03-23T08:05:41;0.90;;;0.70;;
50757;SDS011;36732;47.980;11.652;2024-03-23T08:08:07;1.33;;;1.00;;
50757;SDS011;36732;47.980;11.652;2024-03-23T08:10:33;2.17;;;1.10;;
50757;SDS011;36732;47.980;11.652;2024-03-23T08:12:59;2.03;;;1.33;;
50757;SDS011;36732;47.980;11.652;2024-03-23T08:15:25;1.65;;;0.80;;
50757;SDS011;36732;47.980;11.652;2024-03-23T08:17:51;2.58;;;0.80;;
50757;SDS011;36732;47.980;11.652;2024-03-23T08:20:17;0.85;;;0.70;;
50757;SDS011;36732;47.980;11.652;2024-03-23T08:22:42;3.75;;;0.77;;
50757;SDS011;36732;47.980;11.652;2024-03-23T08:25:08;0.80;;;0.60;;
50757;SDS011;36732;47.980;11.652;2024-03-23T08:27:34;1.80;;;0.70;;
50757;SDS011;36732;47.980;11.652;2024-03-23T08:29:59;0.70;;;0.50;;
50757;SDS011;36732;47.980;11.652;2024-03-23T08:32:25;0.68;;;0.60;;
50757;SDS011;36732;47.980;11.652;2024-03-23T08:34:51;0.73;;;0.60;;
50757;SDS011;36732;47.980;11.652;2024-03-23T08:37:16;0.90;;;0.60;;
50757;SDS011;36732;47.980;11.652;2024-03-23T08:39:45;0.70;;;0.60;;
50757;SDS011;36732;47.980;11.652;2024-03-23T08:42:10;0.90;;;0.70;;
50757;SDS011;36732;47.980;11.652;2024-03-23T08:44:36;0.98;;;0.60;;
50757;SDS011;36732;47.980;11.652;2024-03-23T08:47:02;0.82;;;0.70;;
50757;SDS011;36732;47.980;11.652;2024-03-23T08:49:28;1.05;;;0.95;;
50757;SDS011;36732;47.980;11.652;2024-03-23T08:51:54;0.70;;;0.68;;
50757;SDS011;36732;47.980;11.652;2024-03-23T08:54:19;0.70;;;0.68;;
50757;SDS011;36732;47.980;11.652;2024-03-23T08:56:47;0.95;;;0.70;;
50757;SDS011;36732;47.980;11.652;2024-03-23T08:59:12;0.55;;;0.55;;
50757;SDS011;36732;47.980;11.652;2024-03-23T09:01:39;1.45;;;0.73;;
50757;SDS011;36732;47.980;11.652;2024-03-23T09:04:05;1.00;;;0.90;;
50757;SDS011;36732;47.980;11.652;2024-03-23T09:06:31;3.35;;;0.98;;
50757;SDS011;36732;47.980;11.652;2024-03-23T09:08:56;2.17;;;0.80;;
50757;SDS011;36732;47.980;11.652;2024-03-23T09:11:22;1.83;;;0.82;;
50757;SDS011;36732;47.980;11.652;2024-03-23T09:13:48;1.27;;;1.00;;
50757;SDS011;36732;47.980;11.652;2024-03-23T09:16:14;1.98;;;0.95;;
50757;SDS011;36732;47.980;11.652;2024-03-23T09:18:40;1.13;;;1.00;;
50757;SDS011;36732;47.980;11.652;2024-03-23T09:21:12;0.75;;;0.63;;
50757;SDS011;36732;47.980;11.652;2024-03-23T09:23:39;1.17;;;0.90;;
50757;SDS011;36732;47.980;11.652;2024-03-23T09:26:04;1.23;;;0.70;;
50757;SDS011;36732;47.980;11.652;2024-03-23T09:28:32;0.75;;;0.73;;
50757;SDS011;36732;47.980;11.652;2024-03-23T09:31:05;1.27;;;0.90;;
50757;SDS011;36732;47.980;11.652;2024-03-23T09:33:32;1.33;;;0.93;;
50757;SDS011;36732;47.980;11.652;2024-03-23T09:36:02;0.80;;;0.80;;
50757;SDS011;36732;47.980;11.652;2024-03-23T09:38:29;1.52;;;1.10;;
50757;SDS011;36732;47.980;11.652;2024-03-23T09:40:55;1.30;;;1.20;;
50757;SDS011;36732;47.980;11.652;2024-03-23T09:43:22;1.58;;;1.20;;
50757;SDS011;36732;47.980;11.652;2024-03-23T09:45:48;3.63;;;1.20;;
50757;SDS011;36732;47.980;11.652;2024-03-23T09:48:14;1.60;;;0.98;;
50757;SDS011;36732;47.980;11.652;2024-03-23T09:50:41;1.02;;;0.90;;
50757;SDS011;36732;47.980;11.652;2024-03-23T09:53:10;0.80;;;0.77;;
50757;SDS011;36732;47.980;11.652;2024-03-23T09:55:37;0.90;;;0.73;;
50757;SDS011;36732;47.980;11.652;2024-03-23T09:58:04;0.55;;;0.50;;
50757;SDS011;36732;47.980;11.652;2024-03-23T10:00:31;1.13;;;0.60;;
50757;SDS011;36732;47.980;11.652;2024-03-23T10:02:58;0.80;;;0.45;;
50757;SDS011;36732;47.980;11.652;2024-03-23T10:05:27;0.60;;;0.60;;
50757;SDS011;36732;47.980;11.652;2024-03-23T10:07:54;1.73;;;0.40;;
50757;SDS011;36732;47.980;11.652;2024-03-23T10:10:20;0.43;;;0.30;;
50757;SDS011;36732;47.980;11.652;2024-03-23T10:12:49;0.50;;;0.50;;
50757;SDS011;36732;47.980;11.652;2024-03-23T10:15:17;0.40;;;0.40;;
50757;SDS011;36732;47.980;11.652;2024-03-23T10:17:45;0.28;;;0.28;;
50757;SDS011;36732;47.980;11.652;2024-03-23T10:20:11;0.30;;;0.25;;
50757;SDS011;36732;47.980;11.652;2024-03-23T10:22:37;3.83;;;0.52;;
50757;SDS011;36732;47.980;11.652;2024-03-23T10:25:07;1.02;;;0.43;;
50757;SDS011;36732;47.980;11.652;2024-03-23T10:27:35;1.50;;;0.45;;
50757;SDS011;36732;47.980;11.652;2024-03-23T10:30:08;0.30;;;0.30;;
50757;SDS011;36732;47.980;11.652;2024-03-23T10:32:36;0.57;;;0.40;;
50757;SDS011;36732;47.980;11.652;2024-03-23T10:35:18;0.63;;;0.40;;
50757;SDS011;36732;47.980;11.652;2024-03-23T10:37:48;0.77;;;0.30;;
50757;SDS011;36732;47.980;11.652;2024-03-23T10:40:17;0.28;;;0.28;;
50757;SDS011;36732;47.980;11.652;2024-03-23T10:42:46;0.40;;;0.40;;
50757;SDS011;36732;47.980;11.652;2024-03-23T10:45:12;1.95;;;0.40;;
50757;SDS011;36732;47.980;11.652;2024-03-23T10:47:38;0.38;;;0.38;;
50757;SDS011;36732;47.980;11.652;2024-03-23T10:50:03;1.27;;;0.40;;
50757;SDS011;36732;47.980;11.652;2024-03-23T10:52:33;1.05;;;0.50;;
50757;SDS011;36732;47.980;11.652;2024-03-23T10:54:59;0.47;;;0.47;;
50757;SDS011;36732;47.980;11.652;2024-03-23T11:00:10;1.05;;;0.50;;
50757;SDS011;36732;47.980;11.652;2024-03-23T11:02:37;0.40;;;0.40;;
50757;SDS011;36732;47.980;11.652;2024-03-23T11:05:17;0.50;;;0.50;;
50757;SDS011;36732;47.980;11.652;2024-03-23T11:07:51;0.40;;;0.40;;
50757;SDS011;36732;47.980;11.652;2024-03-23T11:10:25;0.68;;;0.40;;
50757;SDS011;36732;47.980;11.652;2024-03-23T11:12:52;1.40;;;0.40;;
50757;SDS011;36732;47.980;11.652;2024-03-23T11:15:18;0.32;;;0.32;;
50757;SDS011;36732;47.980;11.652;2024-03-23T11:18:03;0.70;;;0.30;;
50757;SDS011;36732;47.980;11.652;2024-03-23T11:20:37;0.30;;;0.30;;
50757;SDS011;36732;47.980;11.652;2024-03-23T11:23:03;0.40;;;0.40;;
50757;SDS011;36732;47.980;11.652;2024-03-23T11:25:29;1.45;;;0.60;;
50757;SDS011;36732;47.980;11.652;2024-03-23T11:28:10;0.60;;;0.30;;
50757;SDS011;36732;47.980;11.652;2024-03-23T11:30:36;0.75;;;0.50;;
50757;SDS011;36732;47.980;11.652;2024-03-23T11:33:06;1.60;;;0.55;;
50757;SDS011;36732;47.980;11.652;2024-03-23T11:35:33;0.70;;;0.60;;
50757;SDS011;36732;47.980;11.652;2024-03-23T11:38:11;1.27;;;0.50;;
50757;SDS011;36732;47.980;11.652;2024-03-23T11:40:46;0.93;;;0.70;;
50757;SDS011;36732;47.980;11.652;2024-03-23T11:43:14;0.95;;;0.55;;
50757;SDS011;36732;47.980;11.652;2024-03-23T11:45:46;0.98;;;0.60;;
50757;SDS011;36732;47.980;11.652;2024-03-23T11:48:15;0.88;;;0.60;;
50757;SDS011;36732;47.980;11.652;2024-03-23T11:50:43;1.15;;;0.60;;
50757;SDS011;36732;47.980;11.652;2024-03-23T11:55:52;2.17;;;0.70;;
50757;SDS011;36732;47.980;11.652;2024-03-23T11:58:22;3.03;;;1.10;;
50757;SDS011;36732;47.980;11.652;2024-03-23T12:00:56;0.63;;;0.60;;
50757;SDS011;36732;47.980;11.652;2024-03-23T12:03:24;1.10;;;0.60;;
50757;SDS011;36732;47.980;11.652;2024-03-23T12:05:53;1.50;;;0.80;;
50757;SDS011;36732;47.980;11.652;2024-03-23T12:10:48;1.20;;;0.70;;
50757;SDS011;36732;47.980;11.652;2024-03-23T12:13:29;1.52;;;0.60;;
50757;SDS011;36732;47.980;11.652;2024-03-23T12:15:55;5.03;;;0.95;;
50757;SDS011;36732;47.980;11.652;2024-03-23T12:18:34;1.58;;;0.85;;
50757;SDS011;36732;47.980;11.652;2024-03-23T12:20:59;1.30;;;1.00;;
50757;SDS011;36732;47.980;11.652;2024-03-23T12:23:25;3.97;;;0.98;;
50757;SDS011;36732;47.980;11.652;2024-03-23T12:25:51;1.35;;;0.85;;
50757;SDS011;36732;47.980;11.652;2024-03-23T12:28:16;1.60;;;0.95;;
50757;SDS011;36732;47.980;11.652;2024-03-23T12:30:42;2.65;;;1.20;;
50757;SDS011;36732;47.980;11.652;2024-03-23T12:33:08;1.20;;;0.70;;
50757;SDS011;36732;47.980;11.652;2024-03-23T12:35:34;2.80;;;1.00;;
50757;SDS011;36732;47.980;11.652;2024-03-23T12:38:00;1.42;;;0.82;;
50757;SDS011;36732;47.980;11.652;2024-03-23T12:40:26;1.85;;;1.10;;
50757;SDS011;36732;47.980;11.652;2024-03-23T12:42:53;1.55;;;0.65;;
50757;SDS011;36732;47.980;11.652;2024-03-23T12:45:19;2.28;;;0.80;;
50757;SDS011;36732;47.980;11.652;2024-03-23T12:47:45;1.98;;;0.82;;
50757;SDS011;36732;47.980;11.652;2024-03-23T12:50:10;1.60;;;0.73;;
50757;SDS011;36732;47.980;11.652;2024-03-23T12:52:36;3.42;;;1.13;;
50757;SDS011;36732;47.980;11.652;2024-03-23T12:55:02;3.00;;;1.30;;
50757;SDS011;36732;47.980;11.652;2024-03-23T12:57:32;1.52;;;0.90;;
50757;SDS011;36732;47.980;11.652;2024-03-23T12:59:58;1.67;;;1.08;;
50757;SDS011;36732;47.980;11.652;2024-03-23T13:02:24;1.50;;;1.13;;
50757;SDS011;36732;47.980;11.652;2024-03-23T13:04:50;1.83;;;1.27;;
50757;SDS011;36732;47.980;11.652;2024-03-23T13:07:17;1.70;;;0.90;;
50757;SDS011;36732;47.980;11.652;2024-03-23T13:09:43;2.05;;;1.17;;
50757;SDS011;36732;47.980;11.652;2024-03-23T13:12:09;6.65;;;1.35;;
50757;SDS011;36732;47.980;11.652;2024-03-23T13:14:37;1.80;;;0.90;;
50757;SDS011;36732;47.980;11.652;2024-03-23T13:17:06;2.00;;;0.88;;
50757;SDS011;36732;47.980;11.652;2024-03-23T13:19:32;1.52;;;1.27;;
50757;SDS011;36732;47.980;11.652;2024-03-23T13:21:59;2.28;;;1.27;;
50757;SDS011;36732;47.980;11.652;2024-03-23T13:24:25;1.10;;;0.90;;
50757;SDS011;36732;47.980;11.652;2024-03-23T13:26:53;1.33;;;0.77;;
50757;SDS011;36732;47.980;11.652;2024-03-23T13:29:20;1.13;;;0.65;;
50757;SDS011;36732;47.980;11.652;2024-03-23T13:31:47;1.95;;;0.70;;
50757;SDS011;36732;47.980;11.652;2024-03-23T13:34:13;1.13;;;0.60;;
50757;SDS011;36732;47.980;11.652;2024-03-23T13:36:40;1.38;;;0.93;;
50757;SDS011;36732;47.980;11.652;2024-03-23T13:39:06;0.95;;;0.82;;
50757;SDS011;36732;47.980;11.652;2024-03-23T13:44:13;0.85;;;0.85;;
50757;SDS011;36732;47.980;11.652;2024-03-23T13:46:40;1.13;;;0.90;;
50757;SDS011;36732;47.980;11.652;2024-03-23T13:51:55;0.82;;;0.73;;
50757;SDS011;36732;47.980;11.652;2024-03-23T13:54:25;1.63;;;0.90;;
50757;SDS011;36732;47.980;11.652;2024-03-23T13:56:52;0.82;;;0.77;;
50757;SDS011;36732;47.980;11.652;2024-03-23T13:59:22;1.88;;;1.02;;
50757;SDS011;36732;47.980;11.652;2024-03-23T14:01:48;2.72;;;1.08;;
50757;SDS011;36732;47.980;11.652;2024-03-23T14:04:14;2.00;;;1.52;;
50757;SDS011;36732;47.980;11.652;2024-03-23T14:06:45;2.08;;;1.40;;
50757;SDS011;36732;47.980;11.652;2024-03-23T14:09:11;2.53;;;1.05;;
50757;SDS011;36732;47.980;11.652;2024-03-23T14:11:39;2.80;;;1.08;;
50757;SDS011;36732;47.980;11.652;2024-03-23T14:14:06;2.05;;;1.23;;
50757;SDS011;36732;47.980;11.652;2024-03-23T14:16:32;2.83;;;1.52;;
50757;SDS011;36732;47.980;11.652;2024-03-23T14:18:58;1.25;;;0.82;;
50757;SDS011;36732;47.980;11.652;2024-03-23T14:21:24;1.23;;;1.00;;
50757;SDS011;36732;47.980;11.652;2024-03-23T14:23:50;2.00;;;1.23;;
50757;SDS011;36732;47.980;11.652;2024-03-23T14:26:16;2.38;;;1.13;;
50757;SDS011;36732;47.980;11.652;2024-03-23T14:28:42;1.15;;;0.95;;
50757;SDS011;36732;47.980;11.652;2024-03-23T14:31:08;1.33;;;0.75;;
50757;SDS011;36732;47.980;11.652;2024-03-23T14:33:35;2.85;;;0.88;;
50757;SDS011;36732;47.980;11.652;2024-03-23T14:36:10;2.10;;;0.88;;
50757;SDS011;36732;47.980;11.652;2024-03-23T14:38:36;2.90;;;1.10;;
50757;SDS011;36732;47.980;11.652;2024-03-23T14:41:02;3.08;;;1.05;;
50757;SDS011;36732;47.980;11.652;2024-03-23T14:43:29;10.40;;;1.40;;
50757;SDS011;36732;47.980;11.652;2024-03-23T14:46:11;2.67;;;1.20;;
50757;SDS011;36732;47.980;11.652;2024-03-23T14:48:39;3.00;;;1.25;;
50757;SDS011;36732;47.980;11.652;2024-03-23T14:51:06;2.85;;;1.13;;
50757;SDS011;36732;47.980;11.652;2024-03-23T14:53:36;4.55;;;1.60;;
50757;SDS011;36732;47.980;11.652;2024-03-23T14:56:05;1.63;;;1.02;;
50757;SDS011;36732;47.980;11.652;2024-03-23T14:58:32;3.45;;;1.65;;
50757;SDS011;36732;47.980;11.652;2024-03-23T15:01:02;2.72;;;1.15;;
50757;SDS011;36732;47.980;11.652;2024-03-23T15:03:35;2.53;;;1.38;;
50757;SDS011;36732;47.980;11.652;2024-03-23T15:06:03;4.40;;;1.08;;
50757;SDS011;36732;47.980;11.652;2024-03-23T15:08:30;2.92;;;1.20;;
50757;SDS011;36732;47.980;11.652;2024-03-23T15:10:58;2.53;;;1.17;;
50757;SDS011;36732;47.980;11.652;2024-03-23T15:13:25;3.13;;;1.38;;
50757;SDS011;36732;47.980;11.652;2024-03-23T15:15:51;4.40;;;1.45;;
50757;SDS011;36732;47.980;11.652;2024-03-23T15:18:17;4.72;;;1.20;;
50757;SDS011;36732;47.980;11.652;2024-03-23T15:20:56;1.98;;;1.10;;
50757;SDS011;36732;47.980;11.652;2024-03-23T15:23:27;3.15;;;1.38;;
50757;SDS011;36732;47.980;11.652;2024-03-23T15:25:54;1.90;;;1.25;;
50757;SDS011;36732;47.980;11.652;2024-03-23T15:28:24;2.45;;;1.17;;
50757;SDS011;36732;47.980;11.652;2024-03-23T15:31:03;1.42;;;1.00;;
50757;SDS011;36732;47.980;11.652;2024-03-23T15:33:34;3.50;;;1.00;;
50757;SDS011;36732;47.980;11.652;2024-03-23T15:36:01;3.10;;;1.17;;
50757;SDS011;36732;47.980;11.652;2024-03-23T15:38:33;3.78;;;1.20;;
50757;SDS011;36732;47.980;11.652;2024-03-23T15:40:59;4.03;;;1.60;;